sensor_id;sensor_type;location;lat;lon;timestamp;temperature;humidity
5352;DHT22;2698;51.454;6.736;2022-11-20T00:00:39;-1.00;99.90
5352;DHT22;2698;51.454;6.736;2022-11-20T00:03:07;-1.00;99.90
5352;DHT22;2698;51.454;6.736;2022-11-20T00:05:33;-1.00;99.90
5352;DHT22;2698;51.454;6.736;2022-11-20T00:08:01;-1.00;99.90
5352;DHT22;2698;51.454;6.736;2022-11-20T00:10:28;-1.00;99.90
5352;DHT22;2698;51.454;6.736;2022-11-20T00:12:55;-1.00;99.90
5352;DHT22;2698;51.454;6.736;2022-11-20T00:15:21;-1.10;99.90
5352;DHT22;2698;51.454;6.736;2022-11-20T00:17:48;-1.00;99.90
5352;DHT22;2698;51.454;6.736;2022-11-20T00:20:16;-1.00;99.90
5352;DHT22;2698;51.454;6.736;2022-11-20T00:22:43;-1.00;99.90
5352;DHT22;2698;51.454;6.736;2022-11-20T00:25:10;-1.00;99.90
5352;DHT22;2698;51.454;6.736;2022-11-20T00:27:37;-1.00;99.90
5352;DHT22;2698;51.454;6.736;2022-11-20T00:30:04;-0.90;99.90
5352;DHT22;2698;51.454;6.736;2022-11-20T00:32:31;-1.00;99.90
5352;DHT22;2698;51.454;6.736;2022-11-20T00:34:58;-1.00;99.90
5352;DHT22;2698;51.454;6.736;2022-11-20T00:37:26;-1.00;99.90
5352;DHT22;2698;51.454;6.736;2022-11-20T00:39:53;-1.00;99.90
5352;DHT22;2698;51.454;6.736;2022-11-20T00:42:20;-0.90;99.90
5352;DHT22;2698;51.454;6.736;2022-11-20T00:44:47;-0.90;99.90
5352;DHT22;2698;51.454;6.736;2022-11-20T00:47:13;-1.00;99.90
5352;DHT22;2698;51.454;6.736;2022-11-20T00:49:40;-0.90;99.90
5352;DHT22;2698;51.454;6.736;2022-11-20T00:52:07;-1.00;99.90
5352;DHT22;2698;51.454;6.736;2022-11-20T00:54:35;-0.90;99.90
5352;DHT22;2698;51.454;6.736;2022-11-20T00:57:02;-0.90;99.90
5352;DHT22;2698;51.454;6.736;2022-11-20T00:59:28;-0.80;99.90
5352;DHT22;2698;51.454;6.736;2022-11-20T01:01:55;-0.80;99.90
5352;DHT22;2698;51.454;6.736;2022-11-20T01:04:22;-0.90;99.90
5352;DHT22;2698;51.454;6.736;2022-11-20T01:06:48;-0.90;99.90
5352;DHT22;2698;51.454;6.736;2022-11-20T01:09:15;-0.90;99.90
5352;DHT22;2698;51.454;6.736;2022-11-20T01:11:44;-0.90;99.90
5352;DHT22;2698;51.454;6.736;2022-11-20T01:14:13;-1.00;99.90
5352;DHT22;2698;51.454;6.736;2022-11-20T01:16:42;-1.00;99.90
5352;DHT22;2698;51.454;6.736;2022-11-20T01:19:11;-1.00;99.90
5352;DHT22;2698;51.454;6.736;2022-11-20T01:21:39;-1.00;99.90
5352;DHT22;2698;51.454;6.736;2022-11-20T01:24:08;-1.00;99.90
5352;DHT22;2698;51.454;6.736;2022-11-20T01:26:38;-1.00;99.90
5352;DHT22;2698;51.454;6.736;2022-11-20T01:29:08;-1.00;99.90
5352;DHT22;2698;51.454;6.736;2022-11-20T01:31:37;-1.00;99.90
5352;DHT22;2698;51.454;6.736;2022-11-20T01:34:05;-1.00;99.90
5352;DHT22;2698;51.454;6.736;2022-11-20T01:36:34;-1.00;99.90
5352;DHT22;2698;51.454;6.736;2022-11-20T01:39:03;-0.90;99.90
5352;DHT22;2698;51.454;6.736;2022-11-20T01:41:31;-0.90;99.90
5352;DHT22;2698;51.454;6.736;2022-11-20T01:44:20;-0.90;99.90
5352;DHT22;2698;51.454;6.736;2022-11-20T01:46:53;-0.80;99.90
5352;DHT22;2698;51.454;6.736;2022-11-20T01:49:27;-0.80;99.90
5352;DHT22;2698;51.454;6.736;2022-11-20T01:52:00;-0.80;99.90
5352;DHT22;2698;51.454;6.736;2022-11-20T01:54:30;-0.80;99.90
5352;DHT22;2698;51.454;6.736;2022-11-20T01:57:01;-0.80;99.90
5352;DHT22;2698;51.454;6.736;2022-11-20T01:59:31;-0.70;99.90
5352;DHT22;2698;51.454;6.736;2022-11-20T02:01:58;-0.60;99.90
5352;DHT22;2698;51.454;6.736;2022-11-20T02:04:25;-0.60;99.90
5352;DHT22;2698;51.454;6.736;2022-11-20T02:06:57;-0.50;99.90
5352;DHT22;2698;51.454;6.736;2022-11-20T02:09:25;-0.50;99.90
5352;DHT22;2698;51.454;6.736;2022-11-20T02:11:52;-0.50;99.90
5352;DHT22;2698;51.454;6.736;2022-11-20T02:14:20;-0.40;99.90
5352;DHT22;2698;51.454;6.736;2022-11-20T02:16:48;-0.40;99.90
5352;DHT22;2698;51.454;6.736;2022-11-20T02:19:22;-0.50;99.90
5352;DHT22;2698;51.454;6.736;2022-11-20T02:21:56;-0.40;99.90
5352;DHT22;2698;51.454;6.736;2022-11-20T02:24:26;-0.30;99.90
5352;DHT22;2698;51.454;6.736;2022-11-20T02:26:55;-0.30;99.90
5352;DHT22;2698;51.454;6.736;2022-11-20T02:29:25;-0.30;99.90
5352;DHT22;2698;51.454;6.736;2022-11-20T02:31:54;-0.30;99.90
5352;DHT22;2698;51.454;6.736;2022-11-20T02:34:21;-0.20;99.90
5352;DHT22;2698;51.454;6.736;2022-11-20T02:36:49;-0.30;99.90
5352;DHT22;2698;51.454;6.736;2022-11-20T02:39:16;-0.30;99.90
5352;DHT22;2698;51.454;6.736;2022-11-20T02:41:44;-0.20;99.90
5352;DHT22;2698;51.454;6.736;2022-11-20T02:44:11;-0.20;99.90
5352;DHT22;2698;51.454;6.736;2022-11-20T02:46:38;-0.20;99.90
5352;DHT22;2698;51.454;6.736;2022-11-20T02:49:05;-0.20;99.90
5352;DHT22;2698;51.454;6.736;2022-11-20T02:51:32;-0.10;99.90
5352;DHT22;2698;51.454;6.736;2022-11-20T02:53:58;-0.10;99.90
5352;DHT22;2698;51.454;6.736;2022-11-20T02:56:25;0.00;99.90
5352;DHT22;2698;51.454;6.736;2022-11-20T02:58:54;0.00;99.90
5352;DHT22;2698;51.454;6.736;2022-11-20T03:01:21;0.10;99.90
5352;DHT22;2698;51.454;6.736;2022-11-20T03:03:47;0.10;99.90
5352;DHT22;2698;51.454;6.736;2022-11-20T03:06:15;0.20;99.90
5352;DHT22;2698;51.454;6.736;2022-11-20T03:08:42;0.20;99.90
5352;DHT22;2698;51.454;6.736;2022-11-20T03:11:09;0.20;99.90
5352;DHT22;2698;51.454;6.736;2022-11-20T03:13:36;0.30;99.90
5352;DHT22;2698;51.454;6.736;2022-11-20T03:16:12;0.20;99.90
5352;DHT22;2698;51.454;6.736;2022-11-20T03:18:40;0.30;99.90
5352;DHT22;2698;51.454;6.736;2022-11-20T03:21:07;0.20;99.90
5352;DHT22;2698;51.454;6.736;2022-11-20T03:23:35;0.10;99.90
5352;DHT22;2698;51.454;6.736;2022-11-20T03:26:10;0.20;99.90
5352;DHT22;2698;51.454;6.736;2022-11-20T03:28:37;0.30;99.90
5352;DHT22;2698;51.454;6.736;2022-11-20T03:31:10;0.30;99.90
5352;DHT22;2698;51.454;6.736;2022-11-20T03:33:38;0.30;99.90
5352;DHT22;2698;51.454;6.736;2022-11-20T03:36:06;0.30;99.90
5352;DHT22;2698;51.454;6.736;2022-11-20T03:38:34;0.30;99.90
5352;DHT22;2698;51.454;6.736;2022-11-20T03:41:01;0.40;99.90
5352;DHT22;2698;51.454;6.736;2022-11-20T03:43:28;0.40;99.90
5352;DHT22;2698;51.454;6.736;2022-11-20T03:45:56;0.50;99.90
5352;DHT22;2698;51.454;6.736;2022-11-20T03:48:24;0.50;99.90
5352;DHT22;2698;51.454;6.736;2022-11-20T03:50:51;0.40;99.90
5352;DHT22;2698;51.454;6.736;2022-11-20T03:53:19;0.50;99.90
5352;DHT22;2698;51.454;6.736;2022-11-20T03:55:50;0.50;99.90
5352;DHT22;2698;51.454;6.736;2022-11-20T03:58:17;0.40;99.90
5352;DHT22;2698;51.454;6.736;2022-11-20T04:00:44;0.50;99.90
5352;DHT22;2698;51.454;6.736;2022-11-20T04:03:10;0.60;99.90
5352;DHT22;2698;51.454;6.736;2022-11-20T04:05:38;0.60;99.90
5352;DHT22;2698;51.454;6.736;2022-11-20T04:08:05;0.50;99.90
5352;DHT22;2698;51.454;6.736;2022-11-20T04:10:33;0.60;99.90
5352;DHT22;2698;51.454;6.736;2022-11-20T04:12:59;0.70;99.90
5352;DHT22;2698;51.454;6.736;2022-11-20T04:15:26;0.90;99.90
5352;DHT22;2698;51.454;6.736;2022-11-20T04:17:54;0.90;99.90
5352;DHT22;2698;51.454;6.736;2022-11-20T04:20:21;0.90;99.90
5352;DHT22;2698;51.454;6.736;2022-11-20T04:22:49;1.00;99.90
5352;DHT22;2698;51.454;6.736;2022-11-20T04:25:15;1.10;99.90
5352;DHT22;2698;51.454;6.736;2022-11-20T04:27:42;1.10;99.90
5352;DHT22;2698;51.454;6.736;2022-11-20T04:30:10;1.00;99.90
5352;DHT22;2698;51.454;6.736;2022-11-20T04:32:36;1.00;99.90
5352;DHT22;2698;51.454;6.736;2022-11-20T04:35:04;1.10;99.90
5352;DHT22;2698;51.454;6.736;2022-11-20T04:37:31;1.10;99.90
5352;DHT22;2698;51.454;6.736;2022-11-20T04:39:59;1.10;99.90
5352;DHT22;2698;51.454;6.736;2022-11-20T04:42:26;1.10;99.90
5352;DHT22;2698;51.454;6.736;2022-11-20T04:44:55;1.10;99.90
5352;DHT22;2698;51.454;6.736;2022-11-20T04:47:22;1.20;99.90
5352;DHT22;2698;51.454;6.736;2022-11-20T04:49:49;1.30;99.90
5352;DHT22;2698;51.454;6.736;2022-11-20T04:52:16;1.40;99.90
5352;DHT22;2698;51.454;6.736;2022-11-20T04:54:43;1.50;99.90
5352;DHT22;2698;51.454;6.736;2022-11-20T04:57:13;1.50;99.90
5352;DHT22;2698;51.454;6.736;2022-11-20T04:59:39;1.50;99.90
5352;DHT22;2698;51.454;6.736;2022-11-20T05:02:06;1.50;99.90
5352;DHT22;2698;51.454;6.736;2022-11-20T05:04:33;1.50;99.90
5352;DHT22;2698;51.454;6.736;2022-11-20T05:07:00;1.40;99.90
5352;DHT22;2698;51.454;6.736;2022-11-20T05:09:26;1.40;99.90
5352;DHT22;2698;51.454;6.736;2022-11-20T05:11:53;1.40;99.90
5352;DHT22;2698;51.454;6.736;2022-11-20T05:14:21;1.40;99.90
5352;DHT22;2698;51.454;6.736;2022-11-20T05:16:48;1.40;99.90
5352;DHT22;2698;51.454;6.736;2022-11-20T05:19:15;1.40;99.90
5352;DHT22;2698;51.454;6.736;2022-11-20T05:21:41;1.40;99.90
5352;DHT22;2698;51.454;6.736;2022-11-20T05:24:08;1.30;99.90
5352;DHT22;2698;51.454;6.736;2022-11-20T05:26:35;1.30;99.90
5352;DHT22;2698;51.454;6.736;2022-11-20T05:29:02;1.30;99.90
5352;DHT22;2698;51.454;6.736;2022-11-20T05:31:30;1.30;99.90
5352;DHT22;2698;51.454;6.736;2022-11-20T05:33:57;1.30;99.90
5352;DHT22;2698;51.454;6.736;2022-11-20T05:36:24;1.30;99.90
5352;DHT22;2698;51.454;6.736;2022-11-20T05:38:51;1.30;99.90
5352;DHT22;2698;51.454;6.736;2022-11-20T05:41:19;1.40;99.90
5352;DHT22;2698;51.454;6.736;2022-11-20T05:43:47;1.40;99.90
5352;DHT22;2698;51.454;6.736;2022-11-20T05:46:16;1.40;99.90
5352;DHT22;2698;51.454;6.736;2022-11-20T05:48:45;1.50;99.90
5352;DHT22;2698;51.454;6.736;2022-11-20T05:51:14;1.50;99.90
5352;DHT22;2698;51.454;6.736;2022-11-20T05:53:41;1.50;99.90
5352;DHT22;2698;51.454;6.736;2022-11-20T05:56:10;1.40;99.90
5352;DHT22;2698;51.454;6.736;2022-11-20T05:58:38;1.40;99.90
5352;DHT22;2698;51.454;6.736;2022-11-20T06:01:06;1.40;99.90
5352;DHT22;2698;51.454;6.736;2022-11-20T06:03:33;1.40;99.90
5352;DHT22;2698;51.454;6.736;2022-11-20T06:06:02;1.40;99.90
5352;DHT22;2698;51.454;6.736;2022-11-20T06:08:29;1.30;99.90
5352;DHT22;2698;51.454;6.736;2022-11-20T06:10:56;1.30;99.90
5352;DHT22;2698;51.454;6.736;2022-11-20T06:13:23;1.40;99.90
5352;DHT22;2698;51.454;6.736;2022-11-20T06:15:51;1.30;99.90
5352;DHT22;2698;51.454;6.736;2022-11-20T06:18:18;1.30;99.90
5352;DHT22;2698;51.454;6.736;2022-11-20T06:20:45;1.30;99.90
5352;DHT22;2698;51.454;6.736;2022-11-20T06:23:14;1.30;99.90
5352;DHT22;2698;51.454;6.736;2022-11-20T06:25:41;1.30;99.90
5352;DHT22;2698;51.454;6.736;2022-11-20T06:28:09;1.20;99.90
5352;DHT22;2698;51.454;6.736;2022-11-20T06:30:36;1.20;99.90
5352;DHT22;2698;51.454;6.736;2022-11-20T06:33:03;1.20;99.90
5352;DHT22;2698;51.454;6.736;2022-11-20T06:35:30;1.30;99.90
5352;DHT22;2698;51.454;6.736;2022-11-20T06:37:56;1.40;99.90
5352;DHT22;2698;51.454;6.736;2022-11-20T06:40:24;1.40;99.90
5352;DHT22;2698;51.454;6.736;2022-11-20T06:42:53;1.40;99.90
5352;DHT22;2698;51.454;6.736;2022-11-20T06:45:20;1.50;99.90
5352;DHT22;2698;51.454;6.736;2022-11-20T06:47:47;1.50;99.90
5352;DHT22;2698;51.454;6.736;2022-11-20T06:50:14;1.50;99.90
5352;DHT22;2698;51.454;6.736;2022-11-20T06:52:41;1.50;99.90
5352;DHT22;2698;51.454;6.736;2022-11-20T06:55:08;1.60;99.90
5352;DHT22;2698;51.454;6.736;2022-11-20T06:57:36;1.70;99.90
5352;DHT22;2698;51.454;6.736;2022-11-20T07:00:03;1.70;99.90
5352;DHT22;2698;51.454;6.736;2022-11-20T07:02:30;1.80;99.90
5352;DHT22;2698;51.454;6.736;2022-11-20T07:04:57;1.70;99.90
5352;DHT22;2698;51.454;6.736;2022-11-20T07:07:23;1.80;99.90
5352;DHT22;2698;51.454;6.736;2022-11-20T07:09:50;1.70;99.90
5352;DHT22;2698;51.454;6.736;2022-11-20T07:12:17;1.70;99.90
5352;DHT22;2698;51.454;6.736;2022-11-20T07:14:45;1.70;99.90
5352;DHT22;2698;51.454;6.736;2022-11-20T07:17:12;1.80;99.90
5352;DHT22;2698;51.454;6.736;2022-11-20T07:19:39;1.80;99.90
5352;DHT22;2698;51.454;6.736;2022-11-20T07:22:05;1.80;99.90
5352;DHT22;2698;51.454;6.736;2022-11-20T07:24:32;1.80;99.90
5352;DHT22;2698;51.454;6.736;2022-11-20T07:26:59;1.90;99.90
5352;DHT22;2698;51.454;6.736;2022-11-20T07:29:26;1.90;99.90
5352;DHT22;2698;51.454;6.736;2022-11-20T07:31:54;1.90;99.90
5352;DHT22;2698;51.454;6.736;2022-11-20T07:34:21;2.00;99.90
5352;DHT22;2698;51.454;6.736;2022-11-20T07:36:47;2.10;99.90
5352;DHT22;2698;51.454;6.736;2022-11-20T07:39:14;2.00;99.90
5352;DHT22;2698;51.454;6.736;2022-11-20T07:41:41;2.10;99.90
5352;DHT22;2698;51.454;6.736;2022-11-20T07:44:07;2.20;99.90
5352;DHT22;2698;51.454;6.736;2022-11-20T07:46:34;2.20;99.90
5352;DHT22;2698;51.454;6.736;2022-11-20T07:49:03;2.40;99.90
5352;DHT22;2698;51.454;6.736;2022-11-20T07:51:29;2.40;99.90
5352;DHT22;2698;51.454;6.736;2022-11-20T07:53:56;2.50;99.90
5352;DHT22;2698;51.454;6.736;2022-11-20T07:56:23;2.50;99.90
5352;DHT22;2698;51.454;6.736;2022-11-20T07:58:49;2.60;99.90
5352;DHT22;2698;51.454;6.736;2022-11-20T08:01:16;2.60;99.90
5352;DHT22;2698;51.454;6.736;2022-11-20T08:03:43;2.60;99.90
5352;DHT22;2698;51.454;6.736;2022-11-20T08:06:11;2.70;99.90
5352;DHT22;2698;51.454;6.736;2022-11-20T08:08:38;2.60;99.90
5352;DHT22;2698;51.454;6.736;2022-11-20T08:11:06;2.60;99.90
5352;DHT22;2698;51.454;6.736;2022-11-20T08:13:50;2.60;99.90
5352;DHT22;2698;51.454;6.736;2022-11-20T08:16:34;2.70;99.90
5352;DHT22;2698;51.454;6.736;2022-11-20T08:19:01;2.60;99.90
5352;DHT22;2698;51.454;6.736;2022-11-20T08:21:29;2.70;99.90
5352;DHT22;2698;51.454;6.736;2022-11-20T08:23:57;2.80;99.90
5352;DHT22;2698;51.454;6.736;2022-11-20T08:26:24;2.80;99.90
5352;DHT22;2698;51.454;6.736;2022-11-20T08:28:53;2.80;99.90
5352;DHT22;2698;51.454;6.736;2022-11-20T08:31:20;2.80;99.90
5352;DHT22;2698;51.454;6.736;2022-11-20T08:33:47;2.90;99.90
5352;DHT22;2698;51.454;6.736;2022-11-20T08:36:13;2.90;99.90
5352;DHT22;2698;51.454;6.736;2022-11-20T08:38:41;2.90;99.90
5352;DHT22;2698;51.454;6.736;2022-11-20T08:41:08;2.90;99.90
5352;DHT22;2698;51.454;6.736;2022-11-20T08:43:52;3.00;99.90
5352;DHT22;2698;51.454;6.736;2022-11-20T08:46:19;2.90;99.90
5352;DHT22;2698;51.454;6.736;2022-11-20T08:48:46;3.00;99.90
5352;DHT22;2698;51.454;6.736;2022-11-20T08:51:13;3.00;99.90
5352;DHT22;2698;51.454;6.736;2022-11-20T08:53:41;3.10;99.90
5352;DHT22;2698;51.454;6.736;2022-11-20T08:56:09;3.20;99.90
5352;DHT22;2698;51.454;6.736;2022-11-20T08:58:36;3.10;99.90
5352;DHT22;2698;51.454;6.736;2022-11-20T09:01:03;3.10;99.90
5352;DHT22;2698;51.454;6.736;2022-11-20T09:03:30;3.00;99.90
5352;DHT22;2698;51.454;6.736;2022-11-20T09:06:01;3.20;99.90
5352;DHT22;2698;51.454;6.736;2022-11-20T09:08:28;3.30;99.90
5352;DHT22;2698;51.454;6.736;2022-11-20T09:10:57;3.40;99.90
5352;DHT22;2698;51.454;6.736;2022-11-20T09:13:25;3.50;99.90
5352;DHT22;2698;51.454;6.736;2022-11-20T09:15:54;3.80;99.90
5352;DHT22;2698;51.454;6.736;2022-11-20T09:18:21;4.00;99.90
5352;DHT22;2698;51.454;6.736;2022-11-20T09:20:48;4.20;99.90
5352;DHT22;2698;51.454;6.736;2022-11-20T09:23:15;4.10;99.90
5352;DHT22;2698;51.454;6.736;2022-11-20T09:25:42;3.90;99.90
5352;DHT22;2698;51.454;6.736;2022-11-20T09:28:10;3.90;99.90
5352;DHT22;2698;51.454;6.736;2022-11-20T09:30:37;4.10;99.90
5352;DHT22;2698;51.454;6.736;2022-11-20T09:33:04;4.20;99.90
5352;DHT22;2698;51.454;6.736;2022-11-20T09:35:31;4.20;99.90
5352;DHT22;2698;51.454;6.736;2022-11-20T09:37:58;4.30;99.90
5352;DHT22;2698;51.454;6.736;2022-11-20T09:40:26;4.20;99.90
5352;DHT22;2698;51.454;6.736;2022-11-20T09:42:57;4.20;99.90
5352;DHT22;2698;51.454;6.736;2022-11-20T09:45:37;4.10;99.90
5352;DHT22;2698;51.454;6.736;2022-11-20T09:48:18;4.00;99.90
5352;DHT22;2698;51.454;6.736;2022-11-20T09:50:52;4.00;99.90
5352;DHT22;2698;51.454;6.736;2022-11-20T09:53:27;3.80;99.90
5352;DHT22;2698;51.454;6.736;2022-11-20T09:55:57;3.80;99.90
5352;DHT22;2698;51.454;6.736;2022-11-20T09:58:28;3.80;99.90
5352;DHT22;2698;51.454;6.736;2022-11-20T10:01:03;3.70;99.90
5352;DHT22;2698;51.454;6.736;2022-11-20T10:03:39;3.70;99.90
5352;DHT22;2698;51.454;6.736;2022-11-20T10:06:13;3.70;99.90
5352;DHT22;2698;51.454;6.736;2022-11-20T10:08:45;3.70;99.90
5352;DHT22;2698;51.454;6.736;2022-11-20T10:11:20;3.70;99.90
5352;DHT22;2698;51.454;6.736;2022-11-20T10:13:55;3.80;99.90
5352;DHT22;2698;51.454;6.736;2022-11-20T10:16:32;3.80;99.90
5352;DHT22;2698;51.454;6.736;2022-11-20T10:19:13;3.80;99.90
5352;DHT22;2698;51.454;6.736;2022-11-20T10:21:55;3.90;99.90
5352;DHT22;2698;51.454;6.736;2022-11-20T10:24:36;4.00;99.90
5352;DHT22;2698;51.454;6.736;2022-11-20T10:27:22;4.10;99.90
5352;DHT22;2698;51.454;6.736;2022-11-20T10:29:59;4.30;99.90
5352;DHT22;2698;51.454;6.736;2022-11-20T10:32:33;4.40;99.90
5352;DHT22;2698;51.454;6.736;2022-11-20T10:35:06;4.30;99.90
5352;DHT22;2698;51.454;6.736;2022-11-20T10:37:35;4.40;99.90
5352;DHT22;2698;51.454;6.736;2022-11-20T10:40:21;4.40;99.90
5352;DHT22;2698;51.454;6.736;2022-11-20T10:42:51;4.60;99.90
5352;DHT22;2698;51.454;6.736;2022-11-20T10:48:16;4.80;99.90
5352;DHT22;2698;51.454;6.736;2022-11-20T10:51:10;4.80;99.90
5352;DHT22;2698;51.454;6.736;2022-11-20T10:53:53;4.90;99.90
5352;DHT22;2698;51.454;6.736;2022-11-20T10:56:26;4.90;99.90
5352;DHT22;2698;51.454;6.736;2022-11-20T10:59:29;4.90;99.90
5352;DHT22;2698;51.454;6.736;2022-11-20T11:01:57;4.90;99.90
5352;DHT22;2698;51.454;6.736;2022-11-20T11:04:33;4.80;99.90
5352;DHT22;2698;51.454;6.736;2022-11-20T11:07:09;4.80;99.90
5352;DHT22;2698;51.454;6.736;2022-11-20T11:09:41;4.80;99.90
5352;DHT22;2698;51.454;6.736;2022-11-20T11:12:09;5.00;99.90
5352;DHT22;2698;51.454;6.736;2022-11-20T11:14:45;5.00;99.90
5352;DHT22;2698;51.454;6.736;2022-11-20T11:17:25;4.90;99.90
5352;DHT22;2698;51.454;6.736;2022-11-20T11:20:04;4.80;99.90
5352;DHT22;2698;51.454;6.736;2022-11-20T11:22:33;4.80;99.90
5352;DHT22;2698;51.454;6.736;2022-11-20T11:25:00;4.90;99.90
5352;DHT22;2698;51.454;6.736;2022-11-20T11:27:28;4.80;99.90
5352;DHT22;2698;51.454;6.736;2022-11-20T11:30:14;4.90;99.90
5352;DHT22;2698;51.454;6.736;2022-11-20T11:32:41;5.00;99.90
5352;DHT22;2698;51.454;6.736;2022-11-20T11:35:24;5.00;99.90
5352;DHT22;2698;51.454;6.736;2022-11-20T11:37:53;5.20;99.90
5352;DHT22;2698;51.454;6.736;2022-11-20T11:40:21;5.20;99.90
5352;DHT22;2698;51.454;6.736;2022-11-20T11:42:52;5.10;99.90
5352;DHT22;2698;51.454;6.736;2022-11-20T11:45:20;5.10;99.90
5352;DHT22;2698;51.454;6.736;2022-11-20T11:47:47;5.10;99.90
5352;DHT22;2698;51.454;6.736;2022-11-20T11:50:17;4.90;99.90
5352;DHT22;2698;51.454;6.736;2022-11-20T11:52:55;4.90;99.90
5352;DHT22;2698;51.454;6.736;2022-11-20T11:55:31;5.00;99.90
5352;DHT22;2698;51.454;6.736;2022-11-20T11:58:12;4.90;99.90
5352;DHT22;2698;51.454;6.736;2022-11-20T12:00:47;5.00;99.90
5352;DHT22;2698;51.454;6.736;2022-11-20T12:03:20;5.00;99.90
5352;DHT22;2698;51.454;6.736;2022-11-20T12:05:50;5.00;99.90
5352;DHT22;2698;51.454;6.736;2022-11-20T12:08:25;4.90;99.90
5352;DHT22;2698;51.454;6.736;2022-11-20T12:10:57;5.00;99.90
5352;DHT22;2698;51.454;6.736;2022-11-20T12:13:34;5.00;99.90
5352;DHT22;2698;51.454;6.736;2022-11-20T12:16:05;5.10;99.90
5352;DHT22;2698;51.454;6.736;2022-11-20T12:18:32;5.10;99.90
5352;DHT22;2698;51.454;6.736;2022-11-20T12:21:07;5.20;99.90
5352;DHT22;2698;51.454;6.736;2022-11-20T12:23:48;5.10;99.90
5352;DHT22;2698;51.454;6.736;2022-11-20T12:26:23;5.10;99.90
5352;DHT22;2698;51.454;6.736;2022-11-20T12:29:02;5.00;99.90
5352;DHT22;2698;51.454;6.736;2022-11-20T12:31:47;5.10;99.90
5352;DHT22;2698;51.454;6.736;2022-11-20T12:34:32;5.10;99.90
5352;DHT22;2698;51.454;6.736;2022-11-20T12:37:08;5.10;99.90
5352;DHT22;2698;51.454;6.736;2022-11-20T12:39:42;5.10;99.90
5352;DHT22;2698;51.454;6.736;2022-11-20T12:42:27;5.10;99.90
5352;DHT22;2698;51.454;6.736;2022-11-20T12:48:50;5.30;99.90
5352;DHT22;2698;51.454;6.736;2022-11-20T12:51:34;5.40;99.90
5352;DHT22;2698;51.454;6.736;2022-11-20T12:54:24;5.30;99.90
5352;DHT22;2698;51.454;6.736;2022-11-20T12:57:00;5.20;99.90
5352;DHT22;2698;51.454;6.736;2022-11-20T12:59:39;5.20;99.90
5352;DHT22;2698;51.454;6.736;2022-11-20T13:02:22;5.10;99.90
5352;DHT22;2698;51.454;6.736;2022-11-20T13:05:03;5.20;99.90
5352;DHT22;2698;51.454;6.736;2022-11-20T13:07:33;5.10;99.90
5352;DHT22;2698;51.454;6.736;2022-11-20T13:10:02;5.10;99.90
5352;DHT22;2698;51.454;6.736;2022-11-20T13:12:34;5.10;99.90
5352;DHT22;2698;51.454;6.736;2022-11-20T13:15:13;5.20;99.90
5352;DHT22;2698;51.454;6.736;2022-11-20T13:17:46;5.30;99.90
5352;DHT22;2698;51.454;6.736;2022-11-20T13:20:15;5.30;99.90
5352;DHT22;2698;51.454;6.736;2022-11-20T13:22:44;5.20;99.90
5352;DHT22;2698;51.454;6.736;2022-11-20T13:25:22;4.90;99.90
5352;DHT22;2698;51.454;6.736;2022-11-20T13:27:50;4.90;99.90
5352;DHT22;2698;51.454;6.736;2022-11-20T13:30:18;5.00;99.90
5352;DHT22;2698;51.454;6.736;2022-11-20T13:32:50;4.90;99.90
5352;DHT22;2698;51.454;6.736;2022-11-20T13:35:27;4.90;99.90
5352;DHT22;2698;51.454;6.736;2022-11-20T13:38:08;4.90;99.90
5352;DHT22;2698;51.454;6.736;2022-11-20T13:40:37;4.90;99.90
5352;DHT22;2698;51.454;6.736;2022-11-20T13:43:16;5.00;99.90
5352;DHT22;2698;51.454;6.736;2022-11-20T13:45:55;4.80;99.90
5352;DHT22;2698;51.454;6.736;2022-11-20T13:48:24;4.90;99.90
5352;DHT22;2698;51.454;6.736;2022-11-20T13:53:57;4.80;99.90
5352;DHT22;2698;51.454;6.736;2022-11-20T13:56:37;4.90;99.90
5352;DHT22;2698;51.454;6.736;2022-11-20T13:59:12;4.80;99.90
5352;DHT22;2698;51.454;6.736;2022-11-20T14:01:44;4.80;99.90
5352;DHT22;2698;51.454;6.736;2022-11-20T14:04:17;4.90;99.90
5352;DHT22;2698;51.454;6.736;2022-11-20T14:06:46;4.80;99.90
5352;DHT22;2698;51.454;6.736;2022-11-20T14:09:25;4.80;99.90
5352;DHT22;2698;51.454;6.736;2022-11-20T14:11:52;4.70;99.90
5352;DHT22;2698;51.454;6.736;2022-11-20T14:14:22;4.70;99.90
5352;DHT22;2698;51.454;6.736;2022-11-20T14:16:50;4.70;99.90
5352;DHT22;2698;51.454;6.736;2022-11-20T14:19:34;4.60;99.90
5352;DHT22;2698;51.454;6.736;2022-11-20T14:22:16;4.60;99.90
5352;DHT22;2698;51.454;6.736;2022-11-20T14:24:44;4.60;99.90
5352;DHT22;2698;51.454;6.736;2022-11-20T14:27:13;4.60;99.90
5352;DHT22;2698;51.454;6.736;2022-11-20T14:29:43;4.60;99.90
5352;DHT22;2698;51.454;6.736;2022-11-20T14:32:11;4.70;99.90
5352;DHT22;2698;51.454;6.736;2022-11-20T14:34:40;4.70;99.90
5352;DHT22;2698;51.454;6.736;2022-11-20T14:37:12;4.60;99.90
5352;DHT22;2698;51.454;6.736;2022-11-20T14:39:42;4.70;99.90
5352;DHT22;2698;51.454;6.736;2022-11-20T14:42:16;4.80;99.90
5352;DHT22;2698;51.454;6.736;2022-11-20T14:44:45;4.70;99.90
5352;DHT22;2698;51.454;6.736;2022-11-20T14:47:13;4.70;99.90
5352;DHT22;2698;51.454;6.736;2022-11-20T14:49:41;4.70;99.90
5352;DHT22;2698;51.454;6.736;2022-11-20T14:52:13;4.70;99.90
5352;DHT22;2698;51.454;6.736;2022-11-20T14:54:45;4.70;99.90
5352;DHT22;2698;51.454;6.736;2022-11-20T14:57:22;4.80;99.90
5352;DHT22;2698;51.454;6.736;2022-11-20T14:59:50;4.70;99.90
5352;DHT22;2698;51.454;6.736;2022-11-20T15:02:17;4.70;99.90
5352;DHT22;2698;51.454;6.736;2022-11-20T15:04:45;4.80;99.90
5352;DHT22;2698;51.454;6.736;2022-11-20T15:07:23;4.80;99.90
5352;DHT22;2698;51.454;6.736;2022-11-20T15:10:00;4.70;99.90
5352;DHT22;2698;51.454;6.736;2022-11-20T15:12:27;4.70;99.90
5352;DHT22;2698;51.454;6.736;2022-11-20T15:14:55;4.70;99.90
5352;DHT22;2698;51.454;6.736;2022-11-20T15:17:22;4.70;99.90
5352;DHT22;2698;51.454;6.736;2022-11-20T15:19:49;4.70;99.90
5352;DHT22;2698;51.454;6.736;2022-11-20T15:22:16;4.70;99.90
5352;DHT22;2698;51.454;6.736;2022-11-20T15:24:43;4.70;99.90
5352;DHT22;2698;51.454;6.736;2022-11-20T15:27:10;4.80;99.90
5352;DHT22;2698;51.454;6.736;2022-11-20T15:29:37;4.70;99.90
5352;DHT22;2698;51.454;6.736;2022-11-20T15:32:05;4.70;99.90
5352;DHT22;2698;51.454;6.736;2022-11-20T15:34:32;4.70;99.90
5352;DHT22;2698;51.454;6.736;2022-11-20T15:36:59;4.70;99.90
5352;DHT22;2698;51.454;6.736;2022-11-20T15:39:26;4.70;99.90
5352;DHT22;2698;51.454;6.736;2022-11-20T15:41:53;4.70;99.90
5352;DHT22;2698;51.454;6.736;2022-11-20T15:44:19;4.70;99.90
5352;DHT22;2698;51.454;6.736;2022-11-20T15:46:46;4.80;99.90
5352;DHT22;2698;51.454;6.736;2022-11-20T15:49:16;4.80;99.90
5352;DHT22;2698;51.454;6.736;2022-11-20T15:51:46;4.70;99.90
5352;DHT22;2698;51.454;6.736;2022-11-20T15:54:14;4.80;99.90
5352;DHT22;2698;51.454;6.736;2022-11-20T15:56:42;4.80;99.90
5352;DHT22;2698;51.454;6.736;2022-11-20T15:59:09;4.90;99.90
5352;DHT22;2698;51.454;6.736;2022-11-20T16:01:36;4.80;99.90
5352;DHT22;2698;51.454;6.736;2022-11-20T16:04:07;4.90;99.90
5352;DHT22;2698;51.454;6.736;2022-11-20T16:06:37;4.90;99.90
5352;DHT22;2698;51.454;6.736;2022-11-20T16:09:04;4.90;99.90
5352;DHT22;2698;51.454;6.736;2022-11-20T16:11:31;4.90;99.90
5352;DHT22;2698;51.454;6.736;2022-11-20T16:13:58;4.90;99.90
5352;DHT22;2698;51.454;6.736;2022-11-20T16:16:42;4.90;99.90
5352;DHT22;2698;51.454;6.736;2022-11-20T16:19:10;4.90;99.90
5352;DHT22;2698;51.454;6.736;2022-11-20T16:21:39;4.80;99.90
5352;DHT22;2698;51.454;6.736;2022-11-20T16:24:08;4.90;99.90
5352;DHT22;2698;51.454;6.736;2022-11-20T16:26:36;4.80;99.90
5352;DHT22;2698;51.454;6.736;2022-11-20T16:29:04;4.80;99.90
5352;DHT22;2698;51.454;6.736;2022-11-20T16:31:31;4.90;99.90
5352;DHT22;2698;51.454;6.736;2022-11-20T16:33:59;4.90;99.90
5352;DHT22;2698;51.454;6.736;2022-11-20T16:36:27;4.90;99.90
5352;DHT22;2698;51.454;6.736;2022-11-20T16:38:57;5.00;99.90
5352;DHT22;2698;51.454;6.736;2022-11-20T16:41:25;4.90;99.90